sensor_id;sensor_type;location;lat;lon;timestamp;P1;durP1;ratioP1;P2;durP2;ratioP2
46561;SDS011;32289;42.688;23.330;2022-12-10T00:00:05;10.63;;;3.70;;
46561;SDS011;32289;42.688;23.330;2022-12-10T00:03:46;11.90;;;4.32;;
46561;SDS011;32289;42.688;23.330;2022-12-10T00:07:27;14.15;;;4.10;;
46561;SDS011;32289;42.688;23.330;2022-12-10T00:11:08;11.32;;;3.90;;
46561;SDS011;32289;42.688;23.330;2022-12-10T00:14:50;12.70;;;4.45;;
46561;SDS011;32289;42.688;23.330;2022-12-10T00:18:31;8.40;;;3.78;;
46561;SDS011;32289;42.688;23.330;2022-12-10T00:22:12;10.13;;;4.30;;
46561;SDS011;32289;42.688;23.330;2022-12-10T00:25:53;7.47;;;4.10;;
46561;SDS011;32289;42.688;23.330;2022-12-10T00:29:33;12.20;;;3.47;;
46561;SDS011;32289;42.688;23.330;2022-12-10T00:33:14;12.13;;;4.00;;
46561;SDS011;32289;42.688;23.330;2022-12-10T00:36:54;6.30;;;3.25;;
46561;SDS011;32289;42.688;23.330;2022-12-10T00:40:35;13.35;;;4.65;;
46561;SDS011;32289;42.688;23.330;2022-12-10T00:44:16;8.27;;;3.40;;
46561;SDS011;32289;42.688;23.330;2022-12-10T00:47:57;6.53;;;3.05;;
46561;SDS011;32289;42.688;23.330;2022-12-10T00:51:37;9.35;;;2.97;;
46561;SDS011;32289;42.688;23.330;2022-12-10T00:55:18;6.65;;;2.70;;
46561;SDS011;32289;42.688;23.330;2022-12-10T00:58:59;5.20;;;2.45;;
46561;SDS011;32289;42.688;23.330;2022-12-10T01:02:40;10.05;;;3.72;;
46561;SDS011;32289;42.688;23.330;2022-12-10T01:06:25;11.57;;;3.10;;
46561;SDS011;32289;42.688;23.330;2022-12-10T01:13:51;7.78;;;3.10;;
46561;SDS011;32289;42.688;23.330;2022-12-10T01:17:32;9.05;;;3.20;;
46561;SDS011;32289;42.688;23.330;2022-12-10T01:21:14;8.43;;;3.05;;
46561;SDS011;32289;42.688;23.330;2022-12-10T01:24:57;10.43;;;2.88;;
46561;SDS011;32289;42.688;23.330;2022-12-10T01:28:39;9.85;;;3.17;;
46561;SDS011;32289;42.688;23.330;2022-12-10T01:32:20;12.52;;;3.30;;
46561;SDS011;32289;42.688;23.330;2022-12-10T01:36:05;12.15;;;3.38;;
46561;SDS011;32289;42.688;23.330;2022-12-10T01:39:51;7.35;;;3.03;;
46561;SDS011;32289;42.688;23.330;2022-12-10T01:47:33;13.63;;;3.25;;
46561;SDS011;32289;42.688;23.330;2022-12-10T01:51:14;6.47;;;2.25;;
46561;SDS011;32289;42.688;23.330;2022-12-10T01:54:55;12.10;;;3.15;;
46561;SDS011;32289;42.688;23.330;2022-12-10T01:58:36;11.13;;;3.10;;
46561;SDS011;32289;42.688;23.330;2022-12-10T02:06:44;5.72;;;2.83;;
46561;SDS011;32289;42.688;23.330;2022-12-10T02:18:56;8.32;;;2.83;;
46561;SDS011;32289;42.688;23.330;2022-12-10T02:22:48;7.70;;;3.13;;
46561;SDS011;32289;42.688;23.330;2022-12-10T02:30:31;13.63;;;3.58;;
46561;SDS011;32289;42.688;23.330;2022-12-10T02:34:14;6.13;;;3.08;;
46561;SDS011;32289;42.688;23.330;2022-12-10T02:38:09;8.27;;;2.80;;
46561;SDS011;32289;42.688;23.330;2022-12-10T02:41:54;18.50;;;3.47;;
46561;SDS011;32289;42.688;23.330;2022-12-10T02:45:35;8.57;;;2.78;;
46561;SDS011;32289;42.688;23.330;2022-12-10T02:49:17;7.50;;;3.28;;
46561;SDS011;32289;42.688;23.330;2022-12-10T02:52:58;9.88;;;3.40;;
46561;SDS011;32289;42.688;23.330;2022-12-10T03:00:25;15.95;;;3.78;;
46561;SDS011;32289;42.688;23.330;2022-12-10T03:04:16;10.77;;;3.35;;
46561;SDS011;32289;42.688;23.330;2022-12-10T03:11:51;9.10;;;4.20;;
46561;SDS011;32289;42.688;23.330;2022-12-10T03:15:39;9.65;;;3.65;;
46561;SDS011;32289;42.688;23.330;2022-12-10T03:19:24;8.02;;;3.63;;
46561;SDS011;32289;42.688;23.330;2022-12-10T03:23:11;8.27;;;3.42;;
46561;SDS011;32289;42.688;23.330;2022-12-10T03:26:56;9.85;;;2.97;;
46561;SDS011;32289;42.688;23.330;2022-12-10T03:30:38;11.18;;;3.72;;
46561;SDS011;32289;42.688;23.330;2022-12-10T03:34:21;6.03;;;2.88;;
46561;SDS011;32289;42.688;23.330;2022-12-10T03:38:02;11.35;;;2.83;;
46561;SDS011;32289;42.688;23.330;2022-12-10T03:41:43;7.93;;;3.00;;
46561;SDS011;32289;42.688;23.330;2022-12-10T03:45:24;5.60;;;2.95;;
46561;SDS011;32289;42.688;23.330;2022-12-10T03:49:05;6.93;;;2.60;;
46561;SDS011;32289;42.688;23.330;2022-12-10T03:52:45;7.20;;;2.72;;
46561;SDS011;32289;42.688;23.330;2022-12-10T03:56:26;5.95;;;2.75;;
46561;SDS011;32289;42.688;23.330;2022-12-10T04:00:07;4.93;;;2.90;;
46561;SDS011;32289;42.688;23.330;2022-12-10T04:03:48;12.95;;;3.22;;
46561;SDS011;32289;42.688;23.330;2022-12-10T04:07:29;6.13;;;2.88;;
46561;SDS011;32289;42.688;23.330;2022-12-10T04:11:11;8.57;;;3.25;;
46561;SDS011;32289;42.688;23.330;2022-12-10T04:14:53;7.38;;;3.00;;
46561;SDS011;32289;42.688;23.330;2022-12-10T04:18:52;7.60;;;3.17;;
46561;SDS011;32289;42.688;23.330;2022-12-10T04:22:34;7.70;;;3.28;;
46561;SDS011;32289;42.688;23.330;2022-12-10T04:26:33;11.40;;;4.23;;
46561;SDS011;32289;42.688;23.330;2022-12-10T04:30:32;5.53;;;2.97;;
46561;SDS011;32289;42.688;23.330;2022-12-10T04:34:13;7.03;;;3.13;;
46561;SDS011;32289;42.688;23.330;2022-12-10T04:37:53;9.10;;;3.17;;
46561;SDS011;32289;42.688;23.330;2022-12-10T04:41:34;10.65;;;3.63;;
46561;SDS011;32289;42.688;23.330;2022-12-10T04:45:14;11.20;;;4.07;;
46561;SDS011;32289;42.688;23.330;2022-12-10T04:48:55;9.52;;;3.33;;
46561;SDS011;32289;42.688;23.330;2022-12-10T04:52:36;10.32;;;3.28;;
46561;SDS011;32289;42.688;23.330;2022-12-10T04:56:16;8.75;;;3.08;;
46561;SDS011;32289;42.688;23.330;2022-12-10T04:59:57;8.65;;;3.92;;
46561;SDS011;32289;42.688;23.330;2022-12-10T05:03:38;8.40;;;3.33;;
46561;SDS011;32289;42.688;23.330;2022-12-10T05:07:19;5.13;;;3.17;;
46561;SDS011;32289;42.688;23.330;2022-12-10T05:11:04;8.23;;;3.38;;
46561;SDS011;32289;42.688;23.330;2022-12-10T05:14:46;7.40;;;3.50;;
46561;SDS011;32289;42.688;23.330;2022-12-10T05:18:27;9.38;;;3.45;;
46561;SDS011;32289;42.688;23.330;2022-12-10T05:22:08;7.07;;;2.88;;
46561;SDS011;32289;42.688;23.330;2022-12-10T05:26:09;11.05;;;3.75;;
46561;SDS011;32289;42.688;23.330;2022-12-10T05:29:52;7.47;;;3.30;;
46561;SDS011;32289;42.688;23.330;2022-12-10T05:33:33;8.77;;;3.78;;
46561;SDS011;32289;42.688;23.330;2022-12-10T05:37:13;8.15;;;3.47;;
46561;SDS011;32289;42.688;23.330;2022-12-10T05:40:54;9.75;;;3.38;;
46561;SDS011;32289;42.688;23.330;2022-12-10T05:44:35;7.75;;;3.83;;
46561;SDS011;32289;42.688;23.330;2022-12-10T05:48:15;11.85;;;3.70;;
46561;SDS011;32289;42.688;23.330;2022-12-10T05:51:56;5.57;;;2.75;;
46561;SDS011;32289;42.688;23.330;2022-12-10T05:55:39;10.48;;;3.92;;
46561;SDS011;32289;42.688;23.330;2022-12-10T05:59:20;11.27;;;3.58;;
46561;SDS011;32289;42.688;23.330;2022-12-10T06:03:00;9.48;;;4.15;;
46561;SDS011;32289;42.688;23.330;2022-12-10T06:06:41;7.82;;;3.40;;
46561;SDS011;32289;42.688;23.330;2022-12-10T06:10:21;10.73;;;4.50;;
46561;SDS011;32289;42.688;23.330;2022-12-10T06:14:02;9.02;;;4.40;;
46561;SDS011;32289;42.688;23.330;2022-12-10T06:17:43;7.05;;;3.55;;
46561;SDS011;32289;42.688;23.330;2022-12-10T06:21:24;7.70;;;3.72;;
46561;SDS011;32289;42.688;23.330;2022-12-10T06:25:04;12.15;;;4.18;;
46561;SDS011;32289;42.688;23.330;2022-12-10T06:28:46;9.10;;;4.57;;
46561;SDS011;32289;42.688;23.330;2022-12-10T06:32:27;8.95;;;4.38;;
46561;SDS011;32289;42.688;23.330;2022-12-10T06:36:09;12.30;;;4.75;;
46561;SDS011;32289;42.688;23.330;2022-12-10T06:39:51;12.25;;;4.53;;
46561;SDS011;32289;42.688;23.330;2022-12-10T06:43:32;15.07;;;4.53;;
46561;SDS011;32289;42.688;23.330;2022-12-10T06:47:13;9.25;;;3.65;;
46561;SDS011;32289;42.688;23.330;2022-12-10T06:50:55;12.68;;;5.38;;
46561;SDS011;32289;42.688;23.330;2022-12-10T06:54:35;9.93;;;4.05;;
46561;SDS011;32289;42.688;23.330;2022-12-10T06:58:16;9.18;;;4.13;;
46561;SDS011;32289;42.688;23.330;2022-12-10T07:01:57;14.20;;;4.72;;
46561;SDS011;32289;42.688;23.330;2022-12-10T07:05:37;16.52;;;5.30;;
46561;SDS011;32289;42.688;23.330;2022-12-10T07:09:18;11.15;;;5.32;;
46561;SDS011;32289;42.688;23.330;2022-12-10T07:12:59;19.20;;;5.95;;
46561;SDS011;32289;42.688;23.330;2022-12-10T07:16:40;11.30;;;4.72;;
46561;SDS011;32289;42.688;23.330;2022-12-10T07:20:21;16.27;;;4.47;;
46561;SDS011;32289;42.688;23.330;2022-12-10T07:24:12;13.23;;;4.95;;
46561;SDS011;32289;42.688;23.330;2022-12-10T07:27:55;8.80;;;4.20;;
46561;SDS011;32289;42.688;23.330;2022-12-10T07:31:35;8.27;;;4.05;;
46561;SDS011;32289;42.688;23.330;2022-12-10T07:35:16;13.40;;;5.88;;
46561;SDS011;32289;42.688;23.330;2022-12-10T07:38:57;10.77;;;3.80;;
46561;SDS011;32289;42.688;23.330;2022-12-10T07:42:38;9.60;;;4.28;;
46561;SDS011;32289;42.688;23.330;2022-12-10T07:46:20;11.65;;;5.38;;
46561;SDS011;32289;42.688;23.330;2022-12-10T07:50:03;13.07;;;4.47;;
46561;SDS011;32289;42.688;23.330;2022-12-10T07:53:44;10.07;;;4.75;;
46561;SDS011;32289;42.688;23.330;2022-12-10T07:57:25;9.48;;;4.10;;
46561;SDS011;32289;42.688;23.330;2022-12-10T08:01:06;11.05;;;4.10;;
46561;SDS011;32289;42.688;23.330;2022-12-10T08:04:47;14.00;;;3.67;;
46561;SDS011;32289;42.688;23.330;2022-12-10T08:08:28;9.13;;;4.65;;
46561;SDS011;32289;42.688;23.330;2022-12-10T08:12:09;9.13;;;4.45;;
46561;SDS011;32289;42.688;23.330;2022-12-10T08:15:49;10.57;;;4.85;;
46561;SDS011;32289;42.688;23.330;2022-12-10T08:19:30;8.20;;;4.40;;
46561;SDS011;32289;42.688;23.330;2022-12-10T08:23:11;8.73;;;4.60;;
46561;SDS011;32289;42.688;23.330;2022-12-10T08:26:51;7.72;;;4.28;;
46561;SDS011;32289;42.688;23.330;2022-12-10T08:30:32;11.20;;;4.53;;
46561;SDS011;32289;42.688;23.330;2022-12-10T08:34:13;13.73;;;4.75;;
46561;SDS011;32289;42.688;23.330;2022-12-10T08:37:56;10.70;;;4.28;;
46561;SDS011;32289;42.688;23.330;2022-12-10T08:41:36;14.25;;;5.93;;
46561;SDS011;32289;42.688;23.330;2022-12-10T08:45:18;11.55;;;5.13;;
46561;SDS011;32289;42.688;23.330;2022-12-10T08:48:59;11.07;;;5.03;;
46561;SDS011;32289;42.688;23.330;2022-12-10T08:52:40;14.20;;;5.80;;
46561;SDS011;32289;42.688;23.330;2022-12-10T08:56:21;15.98;;;6.25;;
46561;SDS011;32289;42.688;23.330;2022-12-10T09:00:02;12.15;;;5.70;;
46561;SDS011;32289;42.688;23.330;2022-12-10T09:03:43;10.55;;;5.13;;
46561;SDS011;32289;42.688;23.330;2022-12-10T09:07:25;8.77;;;5.03;;
46561;SDS011;32289;42.688;23.330;2022-12-10T09:11:10;12.00;;;5.50;;
46561;SDS011;32289;42.688;23.330;2022-12-10T09:14:53;14.90;;;4.35;;
46561;SDS011;32289;42.688;23.330;2022-12-10T09:18:34;10.18;;;4.47;;
46561;SDS011;32289;42.688;23.330;2022-12-10T09:22:15;7.78;;;4.45;;
46561;SDS011;32289;42.688;23.330;2022-12-10T09:25:56;9.98;;;4.53;;
46561;SDS011;32289;42.688;23.330;2022-12-10T09:29:36;8.02;;;4.15;;
46561;SDS011;32289;42.688;23.330;2022-12-10T09:33:17;10.30;;;4.50;;
46561;SDS011;32289;42.688;23.330;2022-12-10T09:36:58;8.27;;;4.47;;
46561;SDS011;32289;42.688;23.330;2022-12-10T09:40:40;12.35;;;4.55;;
46561;SDS011;32289;42.688;23.330;2022-12-10T09:44:46;7.20;;;4.18;;
46561;SDS011;32289;42.688;23.330;2022-12-10T09:52:39;13.05;;;6.53;;
46561;SDS011;32289;42.688;23.330;2022-12-10T09:56:31;9.87;;;4.33;;
46561;SDS011;32289;42.688;23.330;2022-12-10T10:00:19;9.38;;;3.78;;
46561;SDS011;32289;42.688;23.330;2022-12-10T10:04:02;11.68;;;5.20;;
46561;SDS011;32289;42.688;23.330;2022-12-10T10:07:45;7.97;;;4.57;;
46561;SDS011;32289;42.688;23.330;2022-12-10T10:11:30;10.52;;;4.53;;
46561;SDS011;32289;42.688;23.330;2022-12-10T10:15:14;12.82;;;3.83;;
46561;SDS011;32289;42.688;23.330;2022-12-10T10:19:05;17.05;;;5.22;;
46561;SDS011;32289;42.688;23.330;2022-12-10T10:22:57;12.88;;;5.18;;
46561;SDS011;32289;42.688;23.330;2022-12-10T10:26:40;6.43;;;3.70;;
46561;SDS011;32289;42.688;23.330;2022-12-10T10:30:22;12.02;;;6.00;;
46561;SDS011;32289;42.688;23.330;2022-12-10T10:34:05;7.38;;;4.20;;
46561;SDS011;32289;42.688;23.330;2022-12-10T10:38:35;7.63;;;3.63;;
46561;SDS011;32289;42.688;23.330;2022-12-10T10:45:56;7.53;;;3.42;;
46561;SDS011;32289;42.688;23.330;2022-12-10T10:49:43;16.30;;;6.30;;
46561;SDS011;32289;42.688;23.330;2022-12-10T10:53:29;12.20;;;3.78;;
46561;SDS011;32289;42.688;23.330;2022-12-10T10:57:13;9.77;;;4.95;;
46561;SDS011;32289;42.688;23.330;2022-12-10T11:01:00;11.55;;;4.47;;
46561;SDS011;32289;42.688;23.330;2022-12-10T11:04:50;8.65;;;4.85;;
46561;SDS011;32289;42.688;23.330;2022-12-10T11:16:20;6.32;;;3.05;;
46561;SDS011;32289;42.688;23.330;2022-12-10T11:24:04;8.95;;;3.97;;
46561;SDS011;32289;42.688;23.330;2022-12-10T11:28:02;12.75;;;4.00;;
46561;SDS011;32289;42.688;23.330;2022-12-10T11:39:51;7.07;;;3.05;;
46561;SDS011;32289;42.688;23.330;2022-12-10T11:44:09;8.35;;;3.38;;
46561;SDS011;32289;42.688;23.330;2022-12-10T11:47:50;10.25;;;3.55;;
46561;SDS011;32289;42.688;23.330;2022-12-10T12:00:00;5.70;;;2.90;;
46561;SDS011;32289;42.688;23.330;2022-12-10T12:07:48;9.48;;;3.53;;
46561;SDS011;32289;42.688;23.330;2022-12-10T12:11:46;9.40;;;3.95;;
46561;SDS011;32289;42.688;23.330;2022-12-10T12:15:59;7.63;;;3.65;;
46561;SDS011;32289;42.688;23.330;2022-12-10T12:19:43;6.55;;;3.15;;
46561;SDS011;32289;42.688;23.330;2022-12-10T12:23:32;10.13;;;4.30;;
46561;SDS011;32289;42.688;23.330;2022-12-10T12:27:24;11.70;;;5.45;;
46561;SDS011;32289;42.688;23.330;2022-12-10T12:31:14;11.32;;;4.40;;
46561;SDS011;32289;42.688;23.330;2022-12-10T12:39:36;13.13;;;5.20;;
46561;SDS011;32289;42.688;23.330;2022-12-10T12:51:00;11.75;;;4.63;;
46561;SDS011;32289;42.688;23.330;2022-12-10T12:54:46;10.27;;;4.43;;
46561;SDS011;32289;42.688;23.330;2022-12-10T13:06:27;6.20;;;3.72;;
46561;SDS011;32289;42.688;23.330;2022-12-10T13:14:10;15.45;;;5.43;;
46561;SDS011;32289;42.688;23.330;2022-12-10T13:18:43;14.27;;;5.85;;
46561;SDS011;32289;42.688;23.330;2022-12-10T13:29:30;9.35;;;4.15;;
46561;SDS011;32289;42.688;23.330;2022-12-10T13:33:26;11.68;;;4.72;;
46561;SDS011;32289;42.688;23.330;2022-12-10T13:42:22;16.00;;;5.13;;
46561;SDS011;32289;42.688;23.330;2022-12-10T13:46:49;12.77;;;4.57;;
46561;SDS011;32289;42.688;23.330;2022-12-10T13:54:23;12.00;;;4.65;;
46561;SDS011;32289;42.688;23.330;2022-12-10T14:06:25;13.20;;;5.35;;
46561;SDS011;32289;42.688;23.330;2022-12-10T14:10:08;15.13;;;7.20;;
46561;SDS011;32289;42.688;23.330;2022-12-10T14:13:56;14.82;;;6.60;;
46561;SDS011;32289;42.688;23.330;2022-12-10T14:17:39;9.65;;;4.63;;
46561;SDS011;32289;42.688;23.330;2022-12-10T14:21:22;13.57;;;5.68;;
46561;SDS011;32289;42.688;23.330;2022-12-10T14:25:05;16.38;;;5.80;;
46561;SDS011;32289;42.688;23.330;2022-12-10T14:28:56;11.27;;;4.03;;
46561;SDS011;32289;42.688;23.330;2022-12-10T14:32:42;16.05;;;5.18;;
46561;SDS011;32289;42.688;23.330;2022-12-10T14:36:26;14.00;;;5.00;;
46561;SDS011;32289;42.688;23.330;2022-12-10T14:40:40;9.77;;;5.13;;
46561;SDS011;32289;42.688;23.330;2022-12-10T14:44:22;15.32;;;6.03;;
46561;SDS011;32289;42.688;23.330;2022-12-10T14:48:04;12.57;;;6.13;;
46561;SDS011;32289;42.688;23.330;2022-12-10T14:51:49;16.63;;;4.78;;
46561;SDS011;32289;42.688;23.330;2022-12-10T14:55:30;12.50;;;4.70;;
46561;SDS011;32289;42.688;23.330;2022-12-10T14:59:12;14.05;;;4.93;;
46561;SDS011;32289;42.688;23.330;2022-12-10T15:02:59;15.07;;;5.63;;
46561;SDS011;32289;42.688;23.330;2022-12-10T15:06:42;14.88;;;4.85;;
46561;SDS011;32289;42.688;23.330;2022-12-10T15:10:25;37.80;;;15.60;;
46561;SDS011;32289;42.688;23.330;2022-12-10T15:14:18;18.10;;;7.97;;
46561;SDS011;32289;42.688;23.330;2022-12-10T15:21:46;19.08;;;5.90;;
46561;SDS011;32289;42.688;23.330;2022-12-10T15:25:28;17.90;;;6.80;;
46561;SDS011;32289;42.688;23.330;2022-12-10T15:33:02;18.63;;;6.75;;
46561;SDS011;32289;42.688;23.330;2022-12-10T15:40:29;18.73;;;6.97;;
46561;SDS011;32289;42.688;23.330;2022-12-10T15:48:20;18.17;;;8.98;;
46561;SDS011;32289;42.688;23.330;2022-12-10T15:52:02;16.67;;;7.63;;
46561;SDS011;32289;42.688;23.330;2022-12-10T15:55:43;20.00;;;8.23;;
46561;SDS011;32289;42.688;23.330;2022-12-10T15:59:24;13.23;;;6.68;;
46561;SDS011;32289;42.688;23.330;2022-12-10T16:03:05;20.48;;;8.68;;
46561;SDS011;32289;42.688;23.330;2022-12-10T16:06:51;16.08;;;8.40;;
46561;SDS011;32289;42.688;23.330;2022-12-10T16:10:32;17.33;;;7.97;;
46561;SDS011;32289;42.688;23.330;2022-12-10T16:14:13;15.80;;;7.07;;
46561;SDS011;32289;42.688;23.330;2022-12-10T16:17:54;17.08;;;7.30;;
46561;SDS011;32289;42.688;23.330;2022-12-10T16:21:35;16.95;;;7.00;;
46561;SDS011;32289;42.688;23.330;2022-12-10T16:25:18;14.65;;;7.30;;
46561;SDS011;32289;42.688;23.330;2022-12-10T16:29:00;14.43;;;5.63;;
46561;SDS011;32289;42.688;23.330;2022-12-10T16:32:40;21.10;;;9.70;;
46561;SDS011;32289;42.688;23.330;2022-12-10T16:36:21;19.70;;;7.20;;
46561;SDS011;32289;42.688;23.330;2022-12-10T16:40:02;15.80;;;7.95;;
46561;SDS011;32289;42.688;23.330;2022-12-10T16:43:43;16.65;;;7.95;;
46561;SDS011;32289;42.688;23.330;2022-12-10T16:47:24;17.63;;;8.02;;
46561;SDS011;32289;42.688;23.330;2022-12-10T16:51:09;16.45;;;8.02;;
46561;SDS011;32289;42.688;23.330;2022-12-10T16:55:02;15.77;;;8.10;;
46561;SDS011;32289;42.688;23.330;2022-12-10T16:58:44;18.25;;;7.93;;
46561;SDS011;32289;42.688;23.330;2022-12-10T17:02:25;21.17;;;8.98;;
46561;SDS011;32289;42.688;23.330;2022-12-10T17:06:08;17.98;;;9.10;;
46561;SDS011;32289;42.688;23.330;2022-12-10T17:09:50;19.25;;;9.63;;
46561;SDS011;32289;42.688;23.330;2022-12-10T17:13:31;18.98;;;8.68;;
46561;SDS011;32289;42.688;23.330;2022-12-10T17:17:13;23.25;;;9.57;;
46561;SDS011;32289;42.688;23.330;2022-12-10T17:20:54;11.38;;;5.45;;
46561;SDS011;32289;42.688;23.330;2022-12-10T17:24:36;15.82;;;5.15;;
46561;SDS011;32289;42.688;23.330;2022-12-10T17:28:18;11.23;;;5.70;;
46561;SDS011;32289;42.688;23.330;2022-12-10T17:32:01;13.50;;;4.90;;
46561;SDS011;32289;42.688;23.330;2022-12-10T17:35:43;9.45;;;4.60;;
46561;SDS011;32289;42.688;23.330;2022-12-10T17:39:25;11.57;;;4.32;;
46561;SDS011;32289;42.688;23.330;2022-12-10T17:43:08;10.57;;;4.60;;
46561;SDS011;32289;42.688;23.330;2022-12-10T17:46:49;10.23;;;3.80;;
46561;SDS011;32289;42.688;23.330;2022-12-10T17:50:31;10.40;;;3.95;;
46561;SDS011;32289;42.688;23.330;2022-12-10T17:54:13;8.55;;;4.10;;
46561;SDS011;32289;42.688;23.330;2022-12-10T17:57:54;8.88;;;4.00;;
46561;SDS011;32289;42.688;23.330;2022-12-10T18:01:38;14.40;;;5.50;;
46561;SDS011;32289;42.688;23.330;2022-12-10T18:05:18;8.07;;;3.30;;
46561;SDS011;32289;42.688;23.330;2022-12-10T18:09:00;8.02;;;3.70;;
46561;SDS011;32289;42.688;23.330;2022-12-10T18:12:41;9.45;;;3.28;;
46561;SDS011;32289;42.688;23.330;2022-12-10T18:16:23;7.65;;;3.50;;
46561;SDS011;32289;42.688;23.330;2022-12-10T18:20:10;13.05;;;3.92;;
46561;SDS011;32289;42.688;23.330;2022-12-10T18:24:02;12.20;;;4.03;;
46561;SDS011;32289;42.688;23.330;2022-12-10T18:27:43;10.75;;;4.03;;
46561;SDS011;32289;42.688;23.330;2022-12-10T18:31:25;8.25;;;4.28;;
46561;SDS011;32289;42.688;23.330;2022-12-10T18:35:08;7.95;;;3.85;;
46561;SDS011;32289;42.688;23.330;2022-12-10T18:38:58;12.65;;;5.07;;
46561;SDS011;32289;42.688;23.330;2022-12-10T18:42:39;9.55;;;4.68;;
46561;SDS011;32289;42.688;23.330;2022-12-10T18:46:21;10.50;;;4.10;;
46561;SDS011;32289;42.688;23.330;2022-12-10T18:50:05;9.18;;;3.92;;
46561;SDS011;32289;42.688;23.330;2022-12-10T18:54:00;6.90;;;3.53;;
46561;SDS011;32289;42.688;23.330;2022-12-10T18:57:40;11.25;;;4.53;;
46561;SDS011;32289;42.688;23.330;2022-12-10T19:01:22;11.77;;;4.57;;
46561;SDS011;32289;42.688;23.330;2022-12-10T19:05:03;9.40;;;3.67;;
46561;SDS011;32289;42.688;23.330;2022-12-10T19:08:46;8.65;;;4.07;;
46561;SDS011;32289;42.688;23.330;2022-12-10T19:12:27;7.13;;;3.75;;
46561;SDS011;32289;42.688;23.330;2022-12-10T19:16:12;11.60;;;4.40;;
46561;SDS011;32289;42.688;23.330;2022-12-10T19:19:54;8.20;;;3.85;;
46561;SDS011;32289;42.688;23.330;2022-12-10T19:23:35;12.77;;;6.15;;
46561;SDS011;32289;42.688;23.330;2022-12-10T19:27:15;7.90;;;3.20;;
46561;SDS011;32289;42.688;23.330;2022-12-10T19:30:56;11.10;;;4.30;;
46561;SDS011;32289;42.688;23.330;2022-12-10T19:34:37;7.30;;;3.92;;
46561;SDS011;32289;42.688;23.330;2022-12-10T19:38:17;12.02;;;4.70;;
46561;SDS011;32289;42.688;23.330;2022-12-10T19:41:58;16.33;;;5.25;;
46561;SDS011;32289;42.688;23.330;2022-12-10T19:45:39;8.43;;;4.35;;
46561;SDS011;32289;42.688;23.330;2022-12-10T19:49:20;10.60;;;4.18;;
46561;SDS011;32289;42.688;23.330;2022-12-10T19:53:03;8.82;;;3.67;;
46561;SDS011;32289;42.688;23.330;2022-12-10T19:56:44;10.60;;;3.40;;
46561;SDS011;32289;42.688;23.330;2022-12-10T20:00:27;7.97;;;3.83;;
46561;SDS011;32289;42.688;23.330;2022-12-10T20:04:10;10.65;;;4.70;;
46561;SDS011;32289;42.688;23.330;2022-12-10T20:07:52;13.27;;;6.10;;
46561;SDS011;32289;42.688;23.330;2022-12-10T20:11:33;9.77;;;4.53;;
46561;SDS011;32289;42.688;23.330;2022-12-10T20:15:14;9.38;;;4.20;;
46561;SDS011;32289;42.688;23.330;2022-12-10T20:18:56;6.75;;;3.63;;
46561;SDS011;32289;42.688;23.330;2022-12-10T20:22:37;8.30;;;3.90;;
46561;SDS011;32289;42.688;23.330;2022-12-10T20:26:37;14.75;;;6.00;;
46561;SDS011;32289;42.688;23.330;2022-12-10T20:30:25;12.50;;;5.72;;
46561;SDS011;32289;42.688;23.330;2022-12-10T20:34:07;18.00;;;4.78;;
46561;SDS011;32289;42.688;23.330;2022-12-10T20:37:52;11.43;;;4.03;;
46561;SDS011;32289;42.688;23.330;2022-12-10T20:41:33;9.25;;;3.55;;
46561;SDS011;32289;42.688;23.330;2022-12-10T20:45:14;8.98;;;3.88;;
46561;SDS011;32289;42.688;23.330;2022-12-10T20:48:55;11.70;;;5.32;;
46561;SDS011;32289;42.688;23.330;2022-12-10T20:52:37;11.13;;;4.05;;
46561;SDS011;32289;42.688;23.330;2022-12-10T20:56:19;12.43;;;6.95;;
46561;SDS011;32289;42.688;23.330;2022-12-10T21:00:06;11.07;;;4.22;;
46561;SDS011;32289;42.688;23.330;2022-12-10T21:03:49;7.72;;;3.80;;
46561;SDS011;32289;42.688;23.330;2022-12-10T21:07:30;9.38;;;3.53;;
46561;SDS011;32289;42.688;23.330;2022-12-10T21:11:11;7.90;;;4.55;;
46561;SDS011;32289;42.688;23.330;2022-12-10T21:14:51;12.77;;;4.50;;
46561;SDS011;32289;42.688;23.330;2022-12-10T21:18:32;8.82;;;3.92;;
46561;SDS011;32289;42.688;23.330;2022-12-10T21:22:13;10.13;;;4.20;;
46561;SDS011;32289;42.688;23.330;2022-12-10T21:25:56;12.25;;;4.80;;
46561;SDS011;32289;42.688;23.330;2022-12-10T21:29:37;9.88;;;4.05;;
46561;SDS011;32289;42.688;23.330;2022-12-10T21:33:19;9.27;;;4.55;;
46561;SDS011;32289;42.688;23.330;2022-12-10T21:37:01;11.25;;;4.38;;
46561;SDS011;32289;42.688;23.330;2022-12-10T21:40:42;12.60;;;4.53;;
46561;SDS011;32289;42.688;23.330;2022-12-10T21:44:24;14.07;;;7.28;;
46561;SDS011;32289;42.688;23.330;2022-12-10T21:48:05;10.43;;;4.97;;
46561;SDS011;32289;42.688;23.330;2022-12-10T21:51:46;12.15;;;6.00;;
46561;SDS011;32289;42.688;23.330;2022-12-10T21:55:26;9.60;;;4.85;;
46561;SDS011;32289;42.688;23.330;2022-12-10T21:59:07;10.18;;;4.90;;
46561;SDS011;32289;42.688;23.330;2022-12-10T22:02:48;10.98;;;5.60;;
46561;SDS011;32289;42.688;23.330;2022-12-10T22:06:28;13.68;;;5.65;;
46561;SDS011;32289;42.688;23.330;2022-12-10T22:10:10;10.55;;;4.95;;
46561;SDS011;32289;42.688;23.330;2022-12-10T22:13:54;12.90;;;5.72;;
46561;SDS011;32289;42.688;23.330;2022-12-10T22:17:35;13.00;;;5.43;;
46561;SDS011;32289;42.688;23.330;2022-12-10T22:21:16;14.30;;;5.53;;
46561;SDS011;32289;42.688;23.330;2022-12-10T22:25:02;15.00;;;5.43;;
46561;SDS011;32289;42.688;23.330;2022-12-10T22:28:43;16.08;;;7.45;;
46561;SDS011;32289;42.688;23.330;2022-12-10T22:32:23;12.40;;;5.30;;
46561;SDS011;32289;42.688;23.330;2022-12-10T22:36:05;11.45;;;5.65;;
46561;SDS011;32289;42.688;23.330;2022-12-10T22:39:46;16.92;;;6.20;;
46561;SDS011;32289;42.688;23.330;2022-12-10T22:43:27;11.07;;;6.10;;
46561;SDS011;32289;42.688;23.330;2022-12-10T22:47:09;12.65;;;5.85;;
46561;SDS011;32289;42.688;23.330;2022-12-10T22:50:57;14.13;;;5.97;;
46561;SDS011;32289;42.688;23.330;2022-12-10T22:54:40;10.35;;;5.78;;
46561;SDS011;32289;42.688;23.330;2022-12-10T22:58:21;15.30;;;6.05;;
46561;SDS011;32289;42.688;23.330;2022-12-10T23:02:02;12.27;;;7.15;;
46561;SDS011;32289;42.688;23.330;2022-12-10T23:05:44;17.30;;;7.57;;
46561;SDS011;32289;42.688;23.330;2022-12-10T23:09:25;16.67;;;8.45;;
46561;SDS011;32289;42.688;23.330;2022-12-10T23:13:06;17.75;;;8.35;;
46561;SDS011;32289;42.688;23.330;2022-12-10T23:16:49;22.48;;;8.27;;
46561;SDS011;32289;42.688;23.330;2022-12-10T23:20:30;22.20;;;7.95;;
46561;SDS011;32289;42.688;23.330;2022-12-10T23:24:12;15.57;;;6.40;;
46561;SDS011;32289;42.688;23.330;2022-12-10T23:27:53;21.42;;;8.55;;
46561;SDS011;32289;42.688;23.330;2022-12-10T23:31:33;20.25;;;8.15;;
46561;SDS011;32289;42.688;23.330;2022-12-10T23:35:14;14.23;;;7.45;;
46561;SDS011;32289;42.688;23.330;2022-12-10T23:38:55;16.88;;;8.07;;
46561;SDS011;32289;42.688;23.330;2022-12-10T23:42:36;15.18;;;7.70;;
46561;SDS011;32289;42.688;23.330;2022-12-10T23:46:16;18.83;;;6.60;;
46561;SDS011;32289;42.688;23.330;2022-12-10T23:49:57;16.15;;;6.38;;
46561;SDS011;32289;42.688;23.330;2022-12-10T23:53:38;15.65;;;6.85;;
46561;SDS011;32289;42.688;23.330;2022-12-10T23:57:18;12.77;;;5.88;;
